BOX295 EDDP-EDDF
Flight info
| Callsign | BOX295 |
|---|---|
| Flight time | 0h 34m |
| Altitude | 22000 |
| Route | ORTAG5N ORTAG T177 ODIPI/N0427F210 T157 KERAX KERAX5A |
| Aircraft | B77L/H-SDE2E3GHIJ4J5M1P2RWXYZ/LB1D1 |
Departure
| Time | 2026-04-16 13:34 |
|---|---|
| Airport | Leipzig/Halle Airport (EDDP) |
Arrival
| Time | 2026-04-16 14:08 |
|---|---|
| Airport | Frankfurt Main Airport (EDDF) |
| Time | Latitude | Longitude | Altitude | Speed | Heading |
|---|---|---|---|---|---|
| 2026-04-16 12:42 | 51.40908 | 12.24840 | 447 ft | 0 kts | 85° |
| 2026-04-16 13:22 | 51.40906 | 12.24819 | 447 ft | 2 kts | 85° |
| 2026-04-16 13:22 | 51.40905 | 12.24795 | 447 ft | 2 kts | 85° |
| 2026-04-16 13:23 | 51.40904 | 12.24771 | 446 ft | 2 kts | 75° |
| 2026-04-16 13:23 | 51.40898 | 12.24749 | 446 ft | 2 kts | 52° |
| 2026-04-16 13:23 | 51.40888 | 12.24732 | 446 ft | 2 kts | 33° |
| 2026-04-16 13:23 | 51.40874 | 12.24721 | 445 ft | 2 kts | 14° |
| 2026-04-16 13:24 | 51.40859 | 12.24718 | 445 ft | 2 kts | 355° |
| 2026-04-16 13:24 | 51.40853 | 12.24719 | 445 ft | 0 kts | 352° |
| 2026-04-16 13:25 | 51.40844 | 12.24721 | 444 ft | 0 kts | 352° |
| 2026-04-16 13:28 | 51.40853 | 12.24720 | 444 ft | 2 kts | 356° |
| 2026-04-16 13:28 | 51.40877 | 12.24717 | 445 ft | 4 kts | 356° |
| 2026-04-16 13:28 | 51.40918 | 12.24713 | 447 ft | 7 kts | 356° |
| 2026-04-16 13:29 | 51.40974 | 12.24707 | 449 ft | 8 kts | 356° |
| 2026-04-16 13:29 | 51.41043 | 12.24696 | 451 ft | 9 kts | 354° |
| 2026-04-16 13:29 | 51.41093 | 12.24727 | 452 ft | 8 kts | 57° |
| 2026-04-16 13:29 | 51.41106 | 12.24840 | 452 ft | 11 kts | 85° |
| 2026-04-16 13:30 | 51.41113 | 12.24985 | 452 ft | 14 kts | 85° |
| 2026-04-16 13:30 | 51.41121 | 12.25151 | 454 ft | 15 kts | 85° |
| 2026-04-16 13:30 | 51.41128 | 12.25318 | 458 ft | 14 kts | 85° |
| 2026-04-16 13:30 | 51.41136 | 12.25476 | 461 ft | 14 kts | 85° |
| 2026-04-16 13:31 | 51.41148 | 12.25590 | 464 ft | 8 kts | 57° |
| 2026-04-16 13:31 | 51.41198 | 12.25624 | 466 ft | 7 kts | 0° |
| 2026-04-16 13:31 | 51.41245 | 12.25620 | 467 ft | 5 kts | 357° |
| 2026-04-16 13:31 | 51.41279 | 12.25617 | 467 ft | 4 kts | 356° |
| 2026-04-16 13:32 | 51.41305 | 12.25615 | 468 ft | 3 kts | 356° |
| 2026-04-16 13:32 | 51.41338 | 12.25608 | 468 ft | 6 kts | 349° |
| 2026-04-16 13:32 | 51.41383 | 12.25588 | 469 ft | 5 kts | 334° |
| 2026-04-16 13:32 | 51.41397 | 12.25543 | 468 ft | 2 kts | 268° |
| 2026-04-16 13:33 | 51.41397 | 12.25530 | 468 ft | 3 kts | 266° |
| 2026-04-16 13:33 | 51.41386 | 12.25274 | 463 ft | 58 kts | 265° |
| 2026-04-16 13:33 | 51.41336 | 12.24209 | 460 ft | 131 kts | 265° |
| 2026-04-16 13:33 | 51.41260 | 12.22433 | 526 ft | 184 kts | 268° |
| 2026-04-16 13:34 | 51.41180 | 12.20342 | 1196 ft | 190 kts | 267° |
| 2026-04-16 13:34 | 51.41066 | 12.18235 | 2009 ft | 196 kts | 267° |
| 2026-04-16 13:34 | 51.40964 | 12.16116 | 2859 ft | 192 kts | 267° |
| 2026-04-16 13:34 | 51.40854 | 12.13925 | 3279 ft | 209 kts | 267° |
| 2026-04-16 13:35 | 51.40738 | 12.11510 | 3751 ft | 227 kts | 267° |
| 2026-04-16 13:35 | 51.40613 | 12.08895 | 4310 ft | 242 kts | 267° |
| 2026-04-16 13:35 | 51.40481 | 12.06154 | 4884 ft | 257 kts | 267° |
| 2026-04-16 13:35 | 51.40341 | 12.03278 | 5732 ft | 261 kts | 267° |
| 2026-04-16 13:36 | 51.40200 | 12.00379 | 6532 ft | 265 kts | 267° |
| 2026-04-16 13:36 | 51.40057 | 11.97455 | 7404 ft | 267 kts | 268° |
| 2026-04-16 13:36 | 51.39906 | 11.94522 | 8240 ft | 269 kts | 265° |
| 2026-04-16 13:36 | 51.39555 | 11.91575 | 9006 ft | 273 kts | 260° |
| 2026-04-16 13:37 | 51.39138 | 11.88609 | 9801 ft | 275 kts | 260° |
| 2026-04-16 13:37 | 51.38712 | 11.85613 | 10518 ft | 279 kts | 260° |
| 2026-04-16 13:37 | 51.38275 | 11.82532 | 10939 ft | 295 kts | 259° |
| 2026-04-16 13:37 | 51.37808 | 11.79251 | 11346 ft | 311 kts | 259° |
| 2026-04-16 13:38 | 51.37317 | 11.75809 | 11782 ft | 327 kts | 259° |
| 2026-04-16 13:38 | 51.36798 | 11.72179 | 12253 ft | 341 kts | 259° |
| 2026-04-16 13:38 | 51.36259 | 11.68431 | 12992 ft | 347 kts | 259° |
| 2026-04-16 13:38 | 51.35720 | 11.64699 | 13851 ft | 350 kts | 259° |
| 2026-04-16 13:39 | 51.35166 | 11.60864 | 14729 ft | 354 kts | 259° |
| 2026-04-16 13:39 | 51.34612 | 11.57045 | 15552 ft | 358 kts | 259° |
| 2026-04-16 13:39 | 51.34047 | 11.53155 | 16438 ft | 361 kts | 259° |
| 2026-04-16 13:39 | 51.33482 | 11.49283 | 17273 ft | 364 kts | 259° |
| 2026-04-16 13:40 | 51.32906 | 11.45335 | 18107 ft | 368 kts | 259° |
| 2026-04-16 13:40 | 51.32319 | 11.41331 | 18953 ft | 370 kts | 259° |
| 2026-04-16 13:40 | 51.31736 | 11.37362 | 19743 ft | 373 kts | 259° |
| 2026-04-16 13:40 | 51.31139 | 11.33308 | 20548 ft | 376 kts | 258° |
| 2026-04-16 13:41 | 51.30538 | 11.29240 | 21374 ft | 378 kts | 258° |
| 2026-04-16 13:41 | 51.29934 | 11.25158 | 22055 ft | 379 kts | 259° |
| 2026-04-16 13:41 | 51.29328 | 11.21080 | 22195 ft | 378 kts | 259° |
| 2026-04-16 13:41 | 51.28728 | 11.17051 | 22202 ft | 376 kts | 259° |
| 2026-04-16 13:42 | 51.28125 | 11.12997 | 22201 ft | 374 kts | 259° |
| 2026-04-16 13:42 | 51.27519 | 11.08946 | 22205 ft | 374 kts | 259° |
| 2026-04-16 13:42 | 51.26914 | 11.04915 | 22207 ft | 374 kts | 259° |
| 2026-04-16 13:42 | 51.26311 | 11.00907 | 22187 ft | 374 kts | 259° |
| 2026-04-16 13:43 | 51.25707 | 10.96895 | 22212 ft | 374 kts | 259° |
| 2026-04-16 13:43 | 51.25096 | 10.92850 | 22197 ft | 375 kts | 259° |
| 2026-04-16 13:43 | 51.24481 | 10.88795 | 22203 ft | 374 kts | 259° |
| 2026-04-16 13:43 | 51.23866 | 10.84746 | 22203 ft | 375 kts | 259° |
| 2026-04-16 13:44 | 51.23250 | 10.80698 | 22207 ft | 374 kts | 259° |
| 2026-04-16 13:44 | 51.22636 | 10.76673 | 22210 ft | 375 kts | 259° |
| 2026-04-16 13:44 | 51.22025 | 10.72681 | 22198 ft | 375 kts | 259° |
| 2026-04-16 13:44 | 51.21405 | 10.68639 | 22202 ft | 375 kts | 259° |
| 2026-04-16 13:45 | 51.20775 | 10.64598 | 22203 ft | 376 kts | 257° |
| 2026-04-16 13:45 | 51.19793 | 10.60684 | 22199 ft | 380 kts | 246° |
| 2026-04-16 13:45 | 51.18384 | 10.57097 | 22203 ft | 383 kts | 240° |
| 2026-04-16 13:45 | 51.16782 | 10.53723 | 22200 ft | 386 kts | 233° |
| 2026-04-16 13:46 | 51.14863 | 10.50749 | 22196 ft | 389 kts | 227° |
| 2026-04-16 13:46 | 51.12814 | 10.47869 | 22207 ft | 390 kts | 226° |
| 2026-04-16 13:46 | 51.10791 | 10.45039 | 22198 ft | 390 kts | 226° |
| 2026-04-16 13:46 | 51.08773 | 10.42217 | 22203 ft | 390 kts | 226° |
| 2026-04-16 13:47 | 51.06724 | 10.39354 | 22203 ft | 390 kts | 226° |
| 2026-04-16 13:47 | 51.04688 | 10.36512 | 22191 ft | 390 kts | 226° |
| 2026-04-16 13:47 | 51.02648 | 10.33679 | 22202 ft | 391 kts | 226° |
| 2026-04-16 13:47 | 51.00602 | 10.30842 | 22209 ft | 392 kts | 226° |
| 2026-04-16 13:48 | 50.98586 | 10.28049 | 22209 ft | 390 kts | 226° |
| 2026-04-16 13:48 | 50.96525 | 10.25199 | 22206 ft | 389 kts | 226° |
| 2026-04-16 13:48 | 50.94770 | 10.22771 | 22210 ft | 391 kts | 226° |
| 2026-04-16 13:48 | 50.92963 | 10.20276 | 22198 ft | 391 kts | 226° |
| 2026-04-16 13:49 | 50.90786 | 10.17272 | 22203 ft | 392 kts | 226° |
| 2026-04-16 13:49 | 50.88714 | 10.14416 | 22197 ft | 392 kts | 226° |
| 2026-04-16 13:49 | 50.86652 | 10.11579 | 22202 ft | 392 kts | 226° |
| 2026-04-16 13:49 | 50.84587 | 10.08742 | 22195 ft | 391 kts | 226° |
| 2026-04-16 13:50 | 50.82560 | 10.05962 | 22180 ft | 379 kts | 226° |
| 2026-04-16 13:50 | 50.80613 | 10.03300 | 22153 ft | 362 kts | 226° |
| 2026-04-16 13:50 | 50.78741 | 10.00739 | 22082 ft | 348 kts | 226° |
| 2026-04-16 13:50 | 50.76906 | 9.98225 | 21557 ft | 349 kts | 226° |
| 2026-04-16 13:51 | 50.75067 | 9.95703 | 20868 ft | 353 kts | 226° |
| 2026-04-16 13:51 | 50.73226 | 9.93186 | 20332 ft | 352 kts | 226° |
| 2026-04-16 13:51 | 50.71374 | 9.90662 | 19926 ft | 348 kts | 225° |
| 2026-04-16 13:51 | 50.69565 | 9.88198 | 19433 ft | 344 kts | 225° |
| 2026-04-16 13:52 | 50.67733 | 9.85705 | 18871 ft | 342 kts | 225° |
| 2026-04-16 13:52 | 50.65959 | 9.83293 | 18311 ft | 339 kts | 225° |
| 2026-04-16 13:52 | 50.64183 | 9.80880 | 17750 ft | 337 kts | 225° |
| 2026-04-16 13:52 | 50.62421 | 9.78490 | 17208 ft | 334 kts | 225° |
| 2026-04-16 13:53 | 50.60654 | 9.76095 | 16663 ft | 331 kts | 225° |
| 2026-04-16 13:53 | 50.58936 | 9.73768 | 16129 ft | 329 kts | 224° |
| 2026-04-16 13:53 | 50.57219 | 9.71430 | 15583 ft | 327 kts | 224° |
| 2026-04-16 13:53 | 50.55508 | 9.69093 | 14998 ft | 325 kts | 224° |
| 2026-04-16 13:54 | 50.53809 | 9.66773 | 14423 ft | 323 kts | 224° |
| 2026-04-16 13:54 | 50.52117 | 9.64464 | 13875 ft | 320 kts | 224° |
| 2026-04-16 13:54 | 50.50453 | 9.62180 | 13328 ft | 318 kts | 224° |
| 2026-04-16 13:54 | 50.48796 | 9.59895 | 12753 ft | 316 kts | 224° |
| 2026-04-16 13:55 | 50.47157 | 9.57626 | 12209 ft | 314 kts | 224° |
| 2026-04-16 13:55 | 50.45519 | 9.55359 | 11667 ft | 311 kts | 224° |
| 2026-04-16 13:55 | 50.43916 | 9.53135 | 11091 ft | 308 kts | 224° |
| 2026-04-16 13:55 | 50.42318 | 9.50914 | 10467 ft | 307 kts | 224° |
| 2026-04-16 13:56 | 50.40717 | 9.48693 | 9942 ft | 306 kts | 224° |
| 2026-04-16 13:56 | 50.39151 | 9.46509 | 9477 ft | 303 kts | 224° |
| 2026-04-16 13:56 | 50.37589 | 9.44310 | 9043 ft | 298 kts | 224° |
| 2026-04-16 13:56 | 50.36095 | 9.42195 | 8664 ft | 288 kts | 224° |
| 2026-04-16 13:57 | 50.34618 | 9.40106 | 8417 ft | 282 kts | 224° |
| 2026-04-16 13:57 | 50.33188 | 9.38087 | 8181 ft | 278 kts | 224° |
| 2026-04-16 13:57 | 50.31761 | 9.36074 | 7926 ft | 274 kts | 224° |
| 2026-04-16 13:58 | 50.28937 | 9.32080 | 7419 ft | 273 kts | 223° |
| 2026-04-16 13:58 | 50.27544 | 9.30098 | 7165 ft | 272 kts | 223° |
| 2026-04-16 13:58 | 50.26149 | 9.28109 | 6908 ft | 269 kts | 223° |
| 2026-04-16 13:58 | 50.24797 | 9.26176 | 6699 ft | 262 kts | 224° |
| 2026-04-16 13:59 | 50.23474 | 9.24224 | 6508 ft | 254 kts | 230° |
| 2026-04-16 13:59 | 50.22438 | 9.22038 | 6334 ft | 246 kts | 236° |
| 2026-04-16 13:59 | 50.21506 | 9.19895 | 6160 ft | 239 kts | 237° |
| 2026-04-16 13:59 | 50.20622 | 9.17737 | 5978 ft | 233 kts | 239° |
| 2026-04-16 14:00 | 50.19807 | 9.15535 | 5797 ft | 231 kts | 242° |
| 2026-04-16 14:00 | 50.19080 | 9.13315 | 5621 ft | 231 kts | 245° |
| 2026-04-16 14:00 | 50.18408 | 9.11042 | 5441 ft | 231 kts | 246° |
| 2026-04-16 14:00 | 50.17772 | 9.08712 | 5261 ft | 231 kts | 248° |
| 2026-04-16 14:01 | 50.17171 | 9.06386 | 5080 ft | 230 kts | 249° |
| 2026-04-16 14:01 | 50.16600 | 9.04092 | 4999 ft | 228 kts | 249° |
| 2026-04-16 14:01 | 50.16037 | 9.01773 | 4990 ft | 229 kts | 250° |
| 2026-04-16 14:01 | 50.15482 | 8.99448 | 4989 ft | 229 kts | 250° |
| 2026-04-16 14:02 | 50.14937 | 8.97135 | 4985 ft | 228 kts | 250° |
| 2026-04-16 14:02 | 50.14392 | 8.94797 | 4985 ft | 229 kts | 250° |
| 2026-04-16 14:02 | 50.13846 | 8.92451 | 4987 ft | 229 kts | 250° |
| 2026-04-16 14:02 | 50.13307 | 8.90126 | 4985 ft | 230 kts | 250° |
| 2026-04-16 14:03 | 50.12769 | 8.87816 | 4989 ft | 219 kts | 250° |
| 2026-04-16 14:03 | 50.12266 | 8.85662 | 4925 ft | 205 kts | 250° |
| 2026-04-16 14:03 | 50.11784 | 8.83609 | 4639 ft | 202 kts | 250° |
| 2026-04-16 14:03 | 50.11306 | 8.81590 | 4360 ft | 198 kts | 250° |
| 2026-04-16 14:04 | 50.10830 | 8.79587 | 4096 ft | 194 kts | 250° |
| 2026-04-16 14:04 | 50.10363 | 8.77622 | 3824 ft | 191 kts | 250° |
| 2026-04-16 14:04 | 50.09909 | 8.75705 | 3547 ft | 188 kts | 250° |
| 2026-04-16 14:04 | 50.09460 | 8.73804 | 3297 ft | 184 kts | 250° |
| 2026-04-16 14:05 | 50.09026 | 8.71953 | 3042 ft | 184 kts | 250° |
| 2026-04-16 14:05 | 50.08578 | 8.70091 | 2767 ft | 181 kts | 250° |
| 2026-04-16 14:05 | 50.08152 | 8.68264 | 2421 ft | 182 kts | 250° |
| 2026-04-16 14:05 | 50.07710 | 8.66450 | 2139 ft | 179 kts | 249° |
| 2026-04-16 14:06 | 50.07275 | 8.64685 | 1854 ft | 170 kts | 249° |
| 2026-04-16 14:06 | 50.06884 | 8.63002 | 1612 ft | 160 kts | 250° |
| 2026-04-16 14:06 | 50.06514 | 8.61431 | 1399 ft | 147 kts | 250° |
| 2026-04-16 14:06 | 50.06153 | 8.59922 | 1270 ft | 147 kts | 249° |
| 2026-04-16 14:07 | 50.05796 | 8.58445 | 1080 ft | 146 kts | 249° |
| 2026-04-16 14:07 | 50.05448 | 8.56961 | 867 ft | 145 kts | 249° |
| 2026-04-16 14:07 | 50.05098 | 8.55509 | 690 ft | 145 kts | 249° |
| 2026-04-16 14:07 | 50.04747 | 8.54041 | 485 ft | 144 kts | 249° |
| 2026-04-16 14:08 | 50.04396 | 8.52580 | 365 ft | 138 kts | 249° |
| 2026-04-16 14:08 | 50.04108 | 8.51398 | 361 ft | 88 kts | 250° |
| 2026-04-16 14:08 | 50.03969 | 8.50803 | 360 ft | 39 kts | 250° |
| 2026-04-16 14:08 | 50.03879 | 8.50487 | 360 ft | 26 kts | 237° |
| 2026-04-16 14:09 | 50.03775 | 8.50306 | 360 ft | 15 kts | 220° |
| 2026-04-16 14:09 | 50.03702 | 8.50213 | 360 ft | 12 kts | 216° |
| 2026-04-16 14:09 | 50.03640 | 8.50215 | 360 ft | 7 kts | 137° |
| 2026-04-16 14:09 | 50.03630 | 8.50289 | 360 ft | 7 kts | 78° |
| 2026-04-16 14:10 | 50.03648 | 8.50370 | 360 ft | 8 kts | 72° |
| 2026-04-16 14:10 | 50.03667 | 8.50458 | 360 ft | 9 kts | 68° |
| 2026-04-16 14:10 | 50.03693 | 8.50562 | 360 ft | 11 kts | 69° |
| 2026-04-16 14:10 | 50.03725 | 8.50695 | 360 ft | 14 kts | 70° |
| 2026-04-16 14:11 | 50.03760 | 8.50841 | 360 ft | 12 kts | 71° |
| 2026-04-16 14:11 | 50.03753 | 8.50982 | 360 ft | 14 kts | 110° |
| 2026-04-16 14:11 | 50.03709 | 8.51126 | 360 ft | 15 kts | 117° |
| 2026-04-16 14:11 | 50.03659 | 8.51279 | 360 ft | 16 kts | 116° |
| 2026-04-16 14:12 | 50.03607 | 8.51443 | 360 ft | 17 kts | 116° |
| 2026-04-16 14:12 | 50.03563 | 8.51581 | 360 ft | 7 kts | 117° |
| 2026-04-16 14:12 | 50.03554 | 8.51609 | 360 ft | 1 kts | 117° |
| 2026-04-16 14:12 | 50.03532 | 8.51678 | 360 ft | 13 kts | 117° |
| 2026-04-16 14:13 | 50.03516 | 8.51831 | 360 ft | 15 kts | 86° |
| 2026-04-16 14:13 | 50.03528 | 8.52003 | 360 ft | 16 kts | 83° |
| 2026-04-16 14:13 | 50.03537 | 8.52107 | 360 ft | 3 kts | 83° |
| 2026-04-16 14:13 | 50.03542 | 8.52174 | 360 ft | 9 kts | 83° |
| 2026-04-16 14:14 | 50.03552 | 8.52293 | 360 ft | 12 kts | 81° |
| 2026-04-16 14:14 | 50.03578 | 8.52423 | 360 ft | 13 kts | 71° |
| 2026-04-16 14:14 | 50.03596 | 8.52561 | 360 ft | 11 kts | 87° |
| 2026-04-16 14:14 | 50.03609 | 8.52679 | 360 ft | 10 kts | 72° |
| 2026-04-16 14:15 | 50.03625 | 8.52758 | 360 ft | 7 kts | 72° |
| 2026-04-16 14:15 | 50.03629 | 8.52773 | 360 ft | 0 kts | 72° |
| 2026-04-16 14:15 | 50.03632 | 8.52788 | 360 ft | 2 kts | 72° |
| 2026-04-16 14:15 | 50.03639 | 8.52815 | 360 ft | 2 kts | 57° |
| 2026-04-16 14:16 | 50.03652 | 8.52825 | 360 ft | 2 kts | 10° |
| 2026-04-16 14:16 | 50.03677 | 8.52819 | 360 ft | 4 kts | 340° |
| 2026-04-16 14:16 | 50.03708 | 8.52801 | 360 ft | 4 kts | 339° |
| 2026-04-16 14:16 | 50.03733 | 8.52786 | 360 ft | 2 kts | 339° |
| 2026-04-16 14:17 | 50.03735 | 8.52785 | 360 ft | 0 kts | 339° |